createdAt,value
2023-04-18T00:01:31.305Z,7.40
2023-04-18T00:04:00.303Z,7.30
2023-04-18T00:06:30.120Z,7.30
2023-04-18T00:09:00.982Z,7.20
2023-04-18T00:11:30.321Z,7.20
2023-04-18T00:14:04.429Z,7.20
2023-04-18T00:16:34.594Z,7.10
2023-04-18T00:19:04.609Z,7.10
2023-04-18T00:21:36.211Z,7.00
2023-04-18T00:24:05.151Z,7.00
2023-04-18T00:26:33.981Z,6.90
2023-04-18T00:29:06.002Z,6.90
2023-04-18T00:31:39.192Z,6.80
2023-04-18T00:34:09.707Z,6.80
2023-04-18T00:36:38.572Z,6.80
2023-04-18T00:39:10.862Z,6.70
2023-04-18T00:41:43.436Z,6.70
2023-04-18T00:44:12.524Z,6.70
2023-04-18T00:46:42.955Z,6.60
2023-04-18T00:49:14.304Z,6.60
2023-04-18T00:51:48.968Z,6.60
2023-04-18T00:54:19.480Z,6.50
2023-04-18T00:56:50.003Z,6.50
2023-04-18T00:59:18.973Z,6.60
2023-04-18T01:01:50.120Z,6.50
2023-04-18T01:04:25.173Z,6.40
2023-04-18T01:06:57.106Z,6.30
2023-04-18T01:09:26.956Z,6.30
2023-04-18T01:11:55.886Z,6.30
2023-04-18T01:14:27.521Z,6.30
2023-04-18T01:17:02.934Z,6.20
2023-04-18T01:19:35.724Z,6.20
2023-04-18T01:22:06.878Z,6.20
2023-04-18T01:24:36.968Z,6.20
2023-04-18T01:27:11.402Z,6.20
2023-04-18T01:29:40.206Z,6.10
2023-04-18T01:32:08.961Z,6.10
2023-04-18T01:34:37.700Z,6.10
2023-04-18T01:37:06.460Z,6.10
2023-04-18T01:39:36.627Z,6.10
2023-04-18T01:42:05.470Z,6.10
2023-04-18T01:44:34.285Z,6.00
2023-04-18T01:47:06.110Z,6.00
2023-04-18T01:49:35.342Z,6.10
2023-04-18T01:52:07.352Z,6.00
2023-04-18T01:54:37.710Z,6.00
2023-04-18T01:57:08.923Z,6.00
2023-04-18T01:59:37.850Z,6.00
2023-04-18T02:02:15.751Z,5.90
2023-04-18T02:04:44.606Z,5.90
2023-04-18T02:07:13.417Z,5.90
2023-04-18T02:09:43.769Z,5.90
2023-04-18T02:12:13.491Z,5.80
2023-04-18T02:14:45.049Z,5.80
2023-04-18T02:17:14.088Z,5.80
2023-04-18T02:19:46.007Z,5.80
2023-04-18T02:22:14.850Z,5.70
2023-04-18T02:24:45.154Z,5.70
2023-04-18T02:27:15.998Z,5.70
2023-04-18T02:29:47.749Z,5.60
2023-04-18T02:32:17.800Z,5.60
2023-04-18T02:34:50.656Z,5.60
2023-04-18T02:37:22.384Z,5.60
2023-04-18T02:39:58.069Z,5.50
2023-04-18T02:42:31.788Z,5.50
2023-04-18T02:45:00.891Z,5.50
2023-04-18T02:47:31.744Z,5.50
2023-04-18T02:50:06.131Z,5.40
2023-04-18T02:52:35.001Z,5.40
2023-04-18T02:55:10.974Z,5.50
2023-04-18T02:57:39.956Z,5.50
2023-04-18T03:00:11.229Z,5.50
2023-04-18T03:02:40.475Z,5.60
2023-04-18T03:05:10.126Z,5.60
2023-04-18T03:07:38.867Z,5.70
2023-04-18T03:10:09.731Z,5.80
2023-04-18T03:12:38.480Z,5.90
2023-04-18T03:15:08.614Z,6.00
2023-04-18T03:17:37.694Z,6.00
2023-04-18T03:20:08.165Z,6.00
2023-04-18T03:22:36.922Z,6.10
2023-04-18T03:25:07.014Z,6.10
2023-04-18T03:27:37.232Z,6.10
2023-04-18T03:30:07.305Z,6.10
2023-04-18T03:32:36.526Z,6.10
2023-04-18T03:35:07.871Z,6.10
2023-04-18T03:37:36.623Z,6.20
2023-04-18T03:40:11.539Z,6.20
2023-04-18T03:42:41.715Z,6.20
2023-04-18T03:45:19.179Z,6.20
2023-04-18T03:47:48.044Z,6.20
2023-04-18T03:50:20.620Z,6.30
2023-04-18T03:52:52.402Z,6.30
2023-04-18T03:55:21.243Z,6.30
2023-04-18T03:57:53.451Z,6.30
2023-04-18T04:00:22.438Z,6.30
2023-04-18T04:02:51.457Z,6.30
2023-04-18T04:05:20.406Z,6.30
2023-04-18T04:07:49.276Z,6.30
2023-04-18T04:10:18.028Z,6.30
2023-04-18T04:12:46.956Z,6.30
2023-04-18T04:15:21.512Z,6.30
2023-04-18T04:17:51.478Z,6.30
2023-04-18T04:20:24.218Z,6.30
2023-04-18T04:22:54.021Z,6.30
2023-04-18T04:25:25.922Z,6.40
2023-04-18T04:27:54.828Z,6.40
2023-04-18T04:30:27.243Z,6.40
2023-04-18T04:32:56.477Z,6.40
2023-04-18T04:35:38.866Z,6.40
2023-04-18T04:38:09.530Z,6.40
2023-04-18T04:40:38.673Z,6.40
2023-04-18T04:43:15.169Z,6.40
2023-04-18T04:48:33.988Z,6.40
2023-04-18T04:51:08.498Z,6.40
2023-04-18T04:54:05.241Z,6.40
2023-04-18T04:56:53.724Z,6.40
2023-04-18T04:59:28.338Z,6.60
2023-04-18T05:05:06.725Z,6.50
2023-04-18T05:07:48.857Z,6.50
2023-04-18T05:10:36.154Z,6.60
2023-04-18T05:13:23.287Z,6.60
2023-04-18T05:16:19.730Z,6.60
2023-04-18T05:19:08.395Z,6.70
2023-04-18T05:22:03.211Z,6.60
2023-04-18T05:24:32.930Z,6.70
2023-04-18T05:27:28.710Z,6.70
2023-04-18T05:30:09.844Z,6.70
2023-04-18T05:32:42.887Z,6.70
2023-04-18T05:35:16.120Z,6.70
2023-04-18T05:37:53.368Z,6.80
2023-04-18T05:40:30.379Z,6.80
2023-04-18T05:43:14.711Z,6.80
2023-04-18T05:46:09.071Z,6.90
2023-04-18T05:48:50.597Z,7.00
2023-04-18T05:51:24.707Z,7.00
2023-04-18T05:54:08.701Z,7.00
2023-04-18T05:56:50.883Z,7.10
2023-04-18T05:59:33.451Z,7.10
2023-04-18T06:02:06.682Z,7.10
2023-04-18T06:04:38.055Z,7.20
2023-04-18T06:07:16.838Z,7.20
2023-04-18T06:09:53.720Z,7.30
2023-04-18T06:12:24.141Z,7.40
2023-04-18T06:14:53.270Z,7.50
2023-04-18T06:17:23.266Z,7.60
2023-04-18T06:20:02.850Z,7.80
2023-04-18T06:22:34.053Z,7.90
2023-04-18T06:25:10.829Z,8.10
2023-04-18T06:27:39.768Z,8.30
2023-04-18T06:30:12.146Z,8.30
2023-04-18T06:32:42.248Z,8.30
2023-04-18T06:35:13.410Z,8.30
2023-04-18T06:37:44.910Z,8.20
2023-04-18T06:40:24.629Z,8.20
2023-04-18T06:42:53.812Z,8.10
2023-04-18T06:45:22.939Z,8.00
2023-04-18T06:47:53.462Z,8.00
2023-04-18T06:50:23.176Z,7.90
2023-04-18T06:52:53.669Z,7.90
2023-04-18T06:55:23.087Z,7.90
2023-04-18T06:57:52.046Z,8.00
2023-04-18T07:00:21.556Z,8.20
2023-04-18T07:02:52.905Z,8.30
2023-04-18T07:05:23.543Z,8.40
2023-04-18T07:08:03.408Z,8.60
2023-04-18T07:10:32.608Z,8.90
2023-04-18T07:13:04.737Z,9.10
2023-04-18T07:15:35.357Z,9.10
2023-04-18T07:18:09.177Z,9.10
2023-04-18T07:20:38.514Z,9.00
2023-04-18T07:23:10.527Z,8.90
2023-04-18T07:25:39.458Z,8.90
2023-04-18T07:28:08.228Z,8.90
2023-04-18T07:30:40.357Z,8.90
2023-04-18T07:33:12.526Z,9.00
2023-04-18T07:35:41.606Z,9.10
2023-04-18T07:38:11.947Z,9.10
2023-04-18T07:40:40.834Z,9.30
2023-04-18T07:43:10.473Z,9.60
2023-04-18T07:45:39.313Z,9.80
2023-04-18T07:48:08.243Z,9.70
2023-04-18T07:50:39.965Z,9.70
2023-04-18T07:53:14.579Z,9.70
2023-04-18T07:55:51.816Z,9.60
2023-04-18T07:58:23.655Z,9.50
2023-04-18T08:01:22.466Z,9.50
2023-04-18T08:09:58.559Z,9.50
2023-04-18T08:12:39.842Z,9.40
2023-04-18T08:18:21.190Z,9.60
2023-04-18T08:20:54.366Z,9.80
2023-04-18T08:23:23.304Z,9.80
2023-04-18T08:25:53.493Z,10.00
2023-04-18T08:28:23.322Z,9.90
2023-04-18T08:30:53.779Z,9.90
2023-04-18T08:33:23.490Z,10.00
2023-04-18T08:35:52.983Z,10.10
2023-04-18T08:38:21.905Z,10.20
2023-04-18T08:40:53.219Z,10.20
2023-04-18T08:43:25.534Z,10.30
2023-04-18T08:46:00.630Z,10.50
2023-04-18T08:48:38.197Z,10.50
2023-04-18T08:51:13.676Z,10.50
2023-04-18T08:53:45.213Z,10.60
2023-04-18T08:56:34.912Z,10.70
2023-04-18T08:59:09.820Z,10.50
2023-04-18T09:01:53.055Z,10.50
2023-04-18T09:04:38.498Z,10.60
2023-04-18T09:07:09.055Z,10.80
2023-04-18T09:10:00.155Z,10.80
2023-04-18T09:12:32.776Z,10.80
2023-04-18T09:15:12.488Z,10.70
2023-04-18T09:17:43.875Z,10.70
2023-04-18T09:20:18.752Z,10.90
2023-04-18T09:22:51.590Z,11.10
2023-04-18T09:25:31.198Z,11.30
2023-04-18T09:28:02.037Z,11.30
2023-04-18T09:30:37.019Z,11.10
2023-04-18T09:33:07.636Z,11.20
2023-04-18T09:35:36.991Z,11.20
2023-04-18T09:38:06.628Z,11.20
2023-04-18T09:40:35.517Z,11.20
2023-04-18T09:43:19.065Z,11.40
2023-04-18T09:45:50.151Z,11.60
2023-04-18T09:48:18.813Z,11.70
2023-04-18T09:50:48.734Z,11.80
2023-04-18T09:53:21.103Z,11.80
2023-04-18T09:55:56.901Z,11.90
2023-04-18T09:58:33.402Z,12.00
2023-04-18T10:01:03.243Z,12.20
2023-04-18T10:03:36.654Z,12.40
2023-04-18T10:06:06.575Z,12.50
2023-04-18T10:08:35.778Z,12.60
2023-04-18T10:11:04.495Z,12.70
2023-04-18T10:13:37.668Z,12.70
2023-04-18T10:16:07.062Z,12.50
2023-04-18T10:18:37.158Z,12.40
2023-04-18T10:21:06.367Z,12.50
2023-04-18T10:23:37.115Z,12.40
2023-04-18T10:26:06.647Z,12.40
2023-04-18T10:28:57.386Z,12.30
2023-04-18T10:31:27.621Z,12.60
2023-04-18T10:36:30.337Z,13.10
2023-04-18T10:39:03.235Z,12.90
2023-04-18T10:41:33.347Z,12.70
2023-04-18T10:44:20.067Z,12.60
2023-04-18T10:47:23.018Z,12.50
2023-04-18T10:50:06.184Z,12.70
2023-04-18T10:52:35.888Z,12.70
2023-04-18T10:55:17.219Z,12.80
2023-04-18T10:57:49.323Z,13.00
2023-04-18T11:00:22.264Z,13.20
2023-04-18T11:02:54.115Z,13.10
2023-04-18T11:05:31.660Z,13.20
2023-04-18T11:08:19.065Z,13.50
2023-04-18T11:11:03.737Z,13.70
2023-04-18T11:13:34.408Z,13.70
2023-04-18T11:16:05.904Z,13.90
2023-04-18T11:18:42.099Z,13.60
2023-04-18T11:21:10.751Z,13.20
2023-04-18T11:26:46.036Z,13.60
2023-04-18T11:29:29.022Z,14.30
2023-04-18T11:32:04.320Z,14.40
2023-04-18T11:34:36.601Z,14.10
2023-04-18T11:37:09.202Z,14.00
2023-04-18T11:39:44.614Z,13.80
2023-04-18T11:42:23.380Z,14.20
2023-04-18T11:45:06.773Z,14.70
2023-04-18T11:48:20.335Z,14.80
2023-04-18T11:50:57.089Z,14.60
2023-04-18T11:53:36.045Z,14.30
2023-04-18T11:56:26.058Z,14.10
2023-04-18T11:58:56.430Z,14.00
2023-04-18T12:01:29.603Z,13.70
2023-04-18T12:04:16.852Z,13.40
2023-04-18T12:06:55.409Z,13.30
2023-04-18T12:09:31.601Z,13.20
2023-04-18T12:12:07.195Z,13.10
2023-04-18T12:15:07.537Z,13.00
2023-04-18T12:17:55.656Z,13.10
2023-04-18T12:20:32.014Z,13.10
2023-04-18T12:23:03.802Z,13.00
2023-04-18T12:25:38.835Z,13.10
2023-04-18T12:28:18.864Z,13.30
2023-04-18T12:30:47.743Z,13.30
2023-04-18T12:33:22.508Z,13.30
2023-04-18T12:35:59.256Z,13.30
2023-04-18T12:38:33.602Z,13.40
2023-04-18T12:41:02.539Z,13.70
2023-04-18T12:43:31.443Z,14.20
2023-04-18T12:46:04.248Z,14.70
2023-04-18T12:48:33.698Z,15.20
2023-04-18T12:51:07.046Z,14.90
2023-04-18T12:53:36.580Z,14.80
2023-04-18T12:56:09.715Z,14.90
2023-04-18T12:58:41.677Z,15.10
2023-04-18T13:04:10.965Z,15.10
2023-04-18T13:06:43.392Z,15.40
2023-04-18T13:09:15.406Z,15.50
2023-04-18T13:11:49.643Z,15.30
2023-04-18T13:14:27.005Z,15.30
2023-04-18T13:17:22.758Z,15.30
2023-04-18T13:20:09.349Z,15.30
2023-04-18T13:22:43.235Z,15.20
2023-04-18T13:25:14.487Z,14.90
2023-04-18T13:27:45.197Z,14.70
2023-04-18T13:30:17.277Z,14.90
2023-04-18T13:33:03.042Z,14.90
2023-04-18T13:35:39.210Z,15.10
2023-04-18T13:38:14.330Z,14.90
2023-04-18T13:40:45.574Z,14.70
2023-04-18T13:43:28.237Z,14.60
2023-04-18T13:45:57.566Z,14.50
2023-04-18T13:48:26.456Z,14.70
2023-04-18T13:51:08.230Z,15.10
2023-04-18T13:53:41.934Z,15.20
2023-04-18T13:56:15.603Z,15.50
2023-04-18T13:58:51.782Z,15.70
2023-04-18T14:01:21.022Z,15.60
2023-04-18T14:03:51.911Z,15.10
2023-04-18T14:06:20.710Z,15.00
2023-04-18T14:08:52.064Z,15.20
2023-04-18T14:11:21.037Z,15.60
2023-04-18T14:13:49.712Z,15.80
2023-04-18T14:16:19.174Z,16.00
2023-04-18T14:18:48.232Z,15.60
2023-04-18T14:21:16.980Z,15.30
2023-04-18T14:23:45.670Z,15.30
2023-04-18T14:26:15.846Z,15.80
2023-04-18T14:28:44.545Z,16.10
2023-04-18T14:31:14.056Z,16.20
2023-04-18T14:33:43.185Z,16.00
2023-04-18T14:36:12.105Z,16.00
2023-04-18T14:38:40.811Z,16.20
2023-04-18T14:41:09.474Z,16.50
2023-04-18T14:43:39.652Z,16.90
2023-04-18T14:46:13.387Z,16.70
2023-04-18T14:48:42.135Z,16.70
2023-04-18T14:51:10.796Z,17.10
2023-04-18T14:53:44.537Z,17.30
2023-04-18T14:56:14.738Z,17.80
2023-04-18T14:58:45.174Z,17.60
2023-04-18T15:01:13.825Z,17.00
2023-04-18T15:03:42.582Z,16.20
2023-04-18T15:06:11.389Z,16.10
2023-04-18T15:08:40.052Z,15.80
2023-04-18T15:11:08.981Z,15.60
2023-04-18T15:13:37.683Z,15.40
2023-04-18T15:16:08.854Z,15.20
2023-04-18T15:18:40.370Z,15.00
2023-04-18T15:21:09.084Z,15.20
2023-04-18T15:23:39.097Z,15.60
2023-04-18T15:26:07.884Z,15.70
2023-04-18T15:28:36.643Z,15.60
2023-04-18T15:31:09.710Z,15.80
2023-04-18T15:33:38.429Z,16.10
2023-04-18T15:36:07.585Z,16.20
2023-04-18T15:38:36.385Z,16.40
2023-04-18T15:41:06.061Z,16.70
2023-04-18T15:43:34.843Z,16.90
2023-04-18T15:46:04.376Z,16.70
2023-04-18T15:48:36.371Z,16.30
2023-04-18T15:51:05.796Z,15.90
2023-04-18T15:53:34.608Z,16.10
2023-04-18T15:56:03.581Z,16.60
2023-04-18T15:58:32.571Z,16.90
2023-04-18T16:01:01.403Z,16.50
2023-04-18T16:03:30.380Z,16.20
2023-04-18T16:06:01.008Z,15.70
2023-04-18T16:08:33.441Z,15.80
2023-04-18T16:11:02.408Z,16.00
2023-04-18T16:13:31.208Z,16.10
2023-04-18T16:15:59.966Z,16.00
2023-04-18T16:18:28.771Z,16.00
2023-04-18T16:20:57.748Z,15.90
2023-04-18T16:23:28.158Z,15.40
2023-04-18T16:25:56.785Z,15.20
2023-04-18T16:28:25.526Z,14.90
2023-04-18T16:30:55.637Z,14.80
2023-04-18T16:33:26.321Z,14.90
2023-04-18T16:35:57.825Z,15.10
2023-04-18T16:38:28.074Z,15.30
2023-04-18T16:40:57.758Z,15.50
2023-04-18T16:43:27.943Z,15.70
2023-04-18T16:45:57.638Z,15.70
2023-04-18T16:48:26.862Z,15.50
2023-04-18T16:50:55.762Z,15.40
2023-04-18T16:53:24.698Z,15.50
2023-04-18T16:55:54.757Z,15.50
2023-04-18T16:58:26.250Z,15.30
2023-04-18T17:00:54.892Z,15.10
2023-04-18T17:03:23.647Z,15.10
2023-04-18T17:05:52.366Z,15.30
2023-04-18T17:08:21.102Z,15.40
2023-04-18T17:10:54.180Z,15.10
2023-04-18T17:13:29.257Z,15.10
2023-04-18T17:15:58.012Z,14.90
2023-04-18T17:18:29.551Z,14.80
2023-04-18T17:21:03.323Z,14.80
2023-04-18T17:23:33.321Z,14.90
2023-04-18T17:26:03.710Z,14.90
2023-04-18T17:28:32.578Z,15.00
2023-04-18T17:31:02.037Z,14.90
2023-04-18T17:33:30.999Z,14.70
2023-04-18T17:36:03.235Z,14.60
2023-04-18T17:38:32.966Z,14.40
2023-04-18T17:41:04.779Z,14.20
2023-04-18T17:43:45.509Z,14.10
2023-04-18T17:46:17.340Z,14.00
2023-04-18T17:48:46.100Z,14.00
2023-04-18T17:51:22.116Z,14.10
2023-04-18T17:53:55.564Z,14.20
2023-04-18T17:56:30.478Z,14.20
2023-04-18T17:58:59.642Z,14.10
2023-04-18T18:01:30.385Z,14.00
2023-04-18T18:04:01.392Z,13.80
2023-04-18T18:06:36.630Z,13.60
2023-04-18T18:09:08.311Z,13.40
2023-04-18T18:11:40.024Z,13.30
2023-04-18T18:14:08.747Z,13.30
2023-04-18T18:16:39.457Z,13.20
2023-04-18T18:19:14.859Z,13.10
2023-04-18T18:21:45.325Z,13.00
2023-04-18T18:24:14.212Z,12.90
2023-04-18T18:26:44.392Z,12.90
2023-04-18T18:29:18.533Z,12.80
2023-04-18T18:31:47.493Z,12.70
2023-04-18T18:34:16.938Z,12.60
2023-04-18T18:36:46.106Z,12.50
2023-04-18T18:39:17.789Z,12.40
2023-04-18T18:41:52.211Z,12.30
2023-04-18T18:44:26.868Z,12.30
2023-04-18T18:47:05.427Z,12.20
2023-04-18T18:49:34.196Z,12.20
2023-04-18T18:52:04.191Z,12.10
2023-04-18T18:54:33.019Z,12.00
2023-04-18T18:57:03.093Z,11.90
2023-04-18T18:59:31.794Z,11.90
2023-04-18T19:02:00.943Z,11.80
2023-04-18T19:04:29.939Z,11.90
2023-04-18T19:06:58.837Z,11.80
2023-04-18T19:09:27.763Z,11.70
2023-04-18T19:11:58.594Z,11.60
2023-04-18T19:14:30.732Z,11.50
2023-04-18T19:16:59.752Z,11.40
2023-04-18T19:19:31.370Z,11.30
2023-04-18T19:22:01.245Z,11.30
2023-04-18T19:24:31.822Z,11.20
2023-04-18T19:27:01.009Z,11.20
2023-04-18T19:29:32.745Z,11.20
2023-04-18T19:32:01.857Z,11.20
2023-04-18T19:34:30.594Z,11.10
2023-04-18T19:36:59.865Z,11.10
2023-04-18T19:39:29.034Z,11.00
2023-04-18T19:42:00.026Z,10.90
2023-04-18T19:44:31.265Z,10.90
2023-04-18T19:47:00.039Z,10.80
2023-04-18T19:49:28.727Z,10.80
2023-04-18T19:52:00.120Z,10.70
2023-04-18T19:54:36.049Z,10.70
2023-04-18T19:57:06.390Z,10.70
2023-04-18T19:59:36.670Z,10.70
2023-04-18T20:02:06.532Z,10.60
2023-04-18T20:04:36.567Z,10.60
2023-04-18T20:07:05.644Z,10.50
2023-04-18T20:09:34.298Z,10.50
2023-04-18T20:12:03.193Z,10.40
2023-04-18T20:14:33.234Z,10.40
2023-04-18T20:17:05.076Z,10.30
2023-04-18T20:19:38.179Z,10.30
2023-04-18T20:22:11.502Z,10.30
2023-04-18T20:24:43.208Z,10.30
2023-04-18T20:27:12.017Z,10.20
2023-04-18T20:29:43.679Z,10.20
2023-04-18T20:32:13.837Z,10.10
2023-04-18T20:34:42.451Z,10.20
2023-04-18T20:37:11.102Z,10.10
2023-04-18T20:39:39.970Z,10.10
2023-04-18T20:42:14.230Z,10.00
2023-04-18T20:44:44.826Z,10.00
2023-04-18T20:47:15.922Z,10.00
2023-04-18T20:49:44.751Z,9.90
2023-04-18T20:52:14.511Z,9.90
2023-04-18T20:54:47.615Z,9.90
2023-04-18T20:57:16.384Z,9.80
2023-04-18T20:59:45.757Z,9.90
2023-04-18T21:02:22.024Z,9.80
2023-04-18T21:04:50.967Z,9.80
2023-04-18T21:07:22.118Z,9.80
2023-04-18T21:09:50.787Z,9.70
2023-04-18T21:12:19.608Z,9.60
2023-04-18T21:14:51.490Z,9.60
2023-04-18T21:17:21.614Z,9.60
2023-04-18T21:19:50.871Z,9.60
2023-04-18T21:22:19.643Z,9.60
2023-04-18T21:24:48.258Z,9.60
2023-04-18T21:27:16.985Z,9.50
2023-04-18T21:29:45.876Z,9.50
2023-04-18T21:32:14.521Z,9.50
2023-04-18T21:34:44.524Z,9.50
2023-04-18T21:37:13.128Z,9.50
2023-04-18T21:39:42.595Z,9.40
2023-04-18T21:42:11.955Z,9.30
2023-04-18T21:44:42.288Z,9.30
2023-04-18T21:47:11.020Z,9.30
2023-04-18T21:49:39.673Z,9.20
2023-04-18T21:52:14.162Z,9.20
2023-04-18T21:54:42.940Z,9.10
2023-04-18T21:57:14.404Z,9.10
2023-04-18T21:59:43.071Z,9.10
2023-04-18T22:02:11.705Z,9.00
2023-04-18T22:04:42.610Z,9.00
2023-04-18T22:07:18.660Z,9.00
2023-04-18T22:09:49.724Z,8.90
2023-04-18T22:12:18.455Z,8.90
2023-04-18T22:14:48.620Z,8.80
2023-04-18T22:17:17.339Z,8.80
2023-04-18T22:19:48.093Z,8.80
2023-04-18T22:22:18.205Z,8.80
2023-04-18T22:24:49.913Z,8.80
2023-04-18T22:27:18.570Z,8.80
2023-04-18T22:29:48.964Z,8.80
2023-04-18T22:32:17.831Z,8.80
2023-04-18T22:34:46.452Z,8.70
2023-04-18T22:37:15.185Z,8.70
2023-04-18T22:39:47.145Z,8.70
2023-04-18T22:42:15.768Z,8.60
2023-04-18T22:44:45.460Z,8.60
2023-04-18T22:47:14.159Z,8.60
2023-04-18T22:49:47.806Z,8.70
2023-04-18T22:52:16.587Z,8.70
2023-04-18T22:54:46.706Z,8.70
2023-04-18T22:57:17.756Z,8.70
2023-04-18T22:59:46.559Z,8.70
2023-04-18T23:02:15.475Z,8.70
2023-04-18T23:04:45.464Z,8.80
2023-04-18T23:07:16.878Z,8.80
2023-04-18T23:09:47.097Z,8.70
2023-04-18T23:12:16.031Z,8.70
2023-04-18T23:14:44.968Z,8.70
2023-04-18T23:17:15.668Z,8.70
2023-04-18T23:19:45.172Z,8.70
2023-04-18T23:22:13.872Z,8.60
2023-04-18T23:24:42.575Z,8.50
2023-04-18T23:27:15.049Z,8.50
2023-04-18T23:29:43.776Z,8.40
2023-04-18T23:32:12.509Z,8.40
2023-04-18T23:34:41.148Z,8.40
2023-04-18T23:37:10.178Z,8.40
2023-04-18T23:39:38.789Z,8.40
2023-04-18T23:42:07.464Z,8.40
2023-04-18T23:44:37.455Z,8.40
2023-04-18T23:47:06.288Z,8.40
2023-04-18T23:49:34.981Z,8.30
2023-04-18T23:52:04.737Z,8.30
2023-04-18T23:54:33.381Z,8.30
2023-04-18T23:57:02.421Z,8.30
2023-04-18T23:59:31.005Z,8.30
